Oriibu — JD2579 — position and weather

sailwx.info

Track history (hours):
 
Tides and Currents Weather Stations Pressure Air Temp Water Temp Dewpoint Dewpoint Depression Visibility Wind Speed Wind Dir Waves Ship Positions

Oriibu

Last reported at 2018-Feb-23 20:28 UTC. Time now 2018-Feb-23 20:43 UTC.
Position N 34°15' E 135°06'.

Length 75 m; draft 4.3 m.

MMSI: 431000426.

Date/timePositionNaut miles runAvg speedWind from/ knotsBaromVisibWave heightAir tempDewpointWater temp
2018-Feb-23 20:28N 34°15' E 135°06'0 0.0
2018-Feb-23 19:58N 34°15' E 135°06'0 0.0
2018-Feb-23 19:28N 34°15' E 135°06'0 0.0
2018-Feb-23 18:58N 34°15' E 135°06'0 0.0
2018-Feb-23 18:28N 34°15' E 135°06'0 0.0
2018-Feb-23 17:58N 34°15' E 135°06'0 0.0
2018-Feb-23 17:28N 34°15' E 135°06'0 0.0
2018-Feb-23 16:58N 34°15' E 135°06'0 0.0
2018-Feb-23 16:28N 34°15' E 135°06'0 0.0
2018-Feb-23 15:58N 34°15' E 135°06'0 0.0
2018-Feb-23 15:28N 34°15' E 135°06'0 0.0
2018-Feb-23 14:58N 34°15' E 135°06'0 0.0
2018-Feb-23 14:28N 34°15' E 135°06'0 0.0
2018-Feb-23 13:58N 34°15' E 135°06'0 0.0
2018-Feb-23 13:28N 34°15' E 135°06'0 0.1
2018-Feb-23 12:58N 34°15' E 135°06'0 0.1
2018-Feb-23 12:28N 34°15' E 135°06'0 0.0
2018-Feb-23 11:58N 34°15' E 135°06'0 0.0
2018-Feb-23 11:28N 34°15' E 135°06'0 0.0
2018-Feb-23 10:58N 34°15' E 135°06'0 0.0
2018-Feb-23 10:28N 34°15' E 135°06'0 0.1
2018-Feb-23 10:00N 34°15' E 135°06'3 6.4
2018-Feb-23 09:30N 34°17' E 135°04'713.6
2018-Feb-23 09:01N 34°23' E 135°08'713.4
2018-Feb-23 08:30N 34°28' E 135°13'713.2
2018-Feb-23 08:01N 34°33' E 135°18'612.8
2018-Feb-23 07:31N 34°38' E 135°23'4 6.9
2018-Feb-23 07:00N 34°40' E 135°27'0 0.0
2018-Feb-23 06:27N 34°40' E 135°27'0 0.0
2018-Feb-23 06:00N 34°40' E 135°27'0 0.0
2018-Feb-23 05:27N 34°40' E 135°27'0 0.0
2018-Feb-23 05:00N 34°40' E 135°27'0 0.0
2018-Feb-23 04:30N 34°40' E 135°27'0 0.1
2018-Feb-23 04:00N 34°40' E 135°27'3 6.4
2018-Feb-23 03:30N 34°40' E 135°23'2 3.8
2018-Feb-23 02:58N 34°42' E 135°24'0 0.0
2018-Feb-23 02:31N 34°42' E 135°24'0 0.0
2018-Feb-23 01:58N 34°42' E 135°24'0 0.0
2018-Feb-23 01:30N 34°42' E 135°24'1 2.9
2018-Feb-23 01:00N 34°40' E 135°23'611.3
2018-Feb-23 00:29N 34°38' E 135°17'611.7
2018-Feb-23 00:00N 34°36' E 135°10'611.5
2018-Feb-22 23:31N 34°36' E 135°03'612.2
2018-Feb-22 23:00N 34°36' E 134°56'612.7
2018-Feb-22 22:30N 34°33' E 134°49'612.1
2018-Feb-22 22:00N 34°31' E 134°42'612.0
2018-Feb-22 21:29N 34°29' E 134°35'611.7
2018-Feb-22 20:59N 34°26' E 134°28'9011.4
2018-Feb-22 13:02N 34°03' E 132°43'013.0
2018-Feb-22 13:00N 34°03' E 132°42'2011.5
2018-Feb-22 11:13N 33°51' E 132°23'211.0
2018-Feb-22 11:00N 33°50' E 132°20'711.3
2018-Feb-22 10:25N 33°49' E 132°12'510.8
2018-Feb-22 09:57N 33°47' E 132°07'1110.9
2018-Feb-22 08:56N 33°45' E 131°54'512.0
2018-Feb-22 08:30N 33°47' E 131°48'612.2
2018-Feb-22 08:00N 33°48' E 131°41'712.3
2018-Feb-22 07:29N 33°49' E 131°33'612.1
2018-Feb-22 07:00N 33°51' E 131°26'612.0
2018-Feb-22 06:30N 33°52' E 131°19'612.0
2018-Feb-22 06:01N 33°53' E 131°12'611.6
2018-Feb-22 05:31N 33°55' E 131°06'510.7
2018-Feb-22 05:00N 33°59' E 131°00'4 8.8
2018-Feb-22 04:30N 33°56' E 130°56'3 5.1
2018-Feb-22 04:01N 33°55' E 130°53'3 6.7
2018-Feb-22 03:31N 33°55' E 130°49'0 0.0
2018-Feb-22 02:55N 33°55' E 130°49'0 0.0
2018-Feb-22 02:28N 33°55' E 130°49'0 0.0
2018-Feb-22 01:58N 33°55' E 130°49'0 0.0
2018-Feb-22 01:28N 33°55' E 130°49'0 0.0
2018-Feb-22 00:58N 33°55' E 130°49'0 0.0
2018-Feb-22 00:28N 33°55' E 130°49'0 0.0
2018-Feb-21 23:58N 33°55' E 130°49'0 0.0
2018-Feb-21 23:28N 33°55' E 130°49'0 0.0
2018-Feb-21 22:58N 33°55' E 130°49'0 0.0
2018-Feb-21 22:28N 33°55' E 130°49'0 0.0
2018-Feb-21 21:58N 33°55' E 130°49'0 0.0
2018-Feb-21 21:28N 33°55' E 130°49'0 0.0
2018-Feb-21 20:58N 33°55' E 130°49'0 0.0
2018-Feb-21 20:28N 33°55' E 130°49'0 0.0
2018-Feb-21 19:58N 33°55' E 130°49'0 0.0
2018-Feb-21 19:28N 33°55' E 130°49'0 0.0
2018-Feb-21 18:58N 33°55' E 130°49'0 0.0
2018-Feb-21 18:28N 33°55' E 130°49'0 0.0
2018-Feb-21 17:58N 33°55' E 130°49'0 0.0
2018-Feb-21 17:28N 33°55' E 130°49'0 0.0
2018-Feb-21 16:58N 33°55' E 130°49'0 0.0
2018-Feb-21 16:28N 33°55' E 130°49'0 0.0
2018-Feb-21 15:58N 33°55' E 130°49'0 0.0
2018-Feb-21 15:28N 33°55' E 130°49'0 0.0
2018-Feb-21 14:52N 33°55' E 130°49'0 0.0
2018-Feb-21 14:28N 33°55' E 130°49'0 0.0
2018-Feb-21 13:58N 33°55' E 130°49'0 0.0
2018-Feb-21 13:28N 33°55' E 130°49'0 0.0
2018-Feb-21 12:58N 33°55' E 130°49'0 0.0
2018-Feb-21 12:25N 33°55' E 130°49'0 0.0
2018-Feb-21 12:01N 33°55' E 130°49'3 6.1
2018-Feb-21 11:30N 33°56' E 130°53'2 3.6
2018-Feb-21 11:00N 33°54' E 130°53'0 0.0
2018-Feb-21 10:30N 33°54' E 130°53'0 0.0
2018-Feb-21 10:00N 33°54' E 130°53'0 0.0
2018-Feb-21 09:30N 33°54' E 130°53'0 0.0
2018-Feb-21 09:00N 33°54' E 130°53'0 0.0
2018-Feb-21 08:30N 33°54' E 130°53'0 0.1
2018-Feb-21 08:00N 33°54' E 130°53'0 0.0
2018-Feb-21 07:30N 33°54' E 130°53'0 0.0
2018-Feb-21 07:00N 33°54' E 130°53'0 0.0
2018-Feb-21 06:30N 33°54' E 130°53'0 0.0
2018-Feb-21 06:00N 33°54' E 130°53'0 0.4
2018-Feb-21 05:30N 33°54' E 130°53'1 2.1
2018-Feb-21 05:00N 33°55' E 130°52'0 0.0
2018-Feb-21 04:28N 33°55' E 130°52'0 0.0
2018-Feb-21 03:58N 33°55' E 130°52'0 0.0
2018-Feb-21 03:28N 33°55' E 130°52'0 0.0
2018-Feb-21 02:58N 33°55' E 130°52'0 0.0
2018-Feb-21 02:28N 33°55' E 130°52'0 0.0
2018-Feb-21 01:58N 33°55' E 130°52'0 0.0
2018-Feb-21 01:28N 33°55' E 130°52'0 0.0
2018-Feb-21 00:58N 33°55' E 130°52'0 0.0
2018-Feb-21 00:28N 33°55' E 130°52'0 0.0
2018-Feb-20 23:58N 33°55' E 130°52'0 0.0
2018-Feb-20 23:28N 33°55' E 130°52'0 0.0
2018-Feb-20 23:00N 33°55' E 130°52'1 1.8
2018-Feb-20 22:31N 33°55' E 130°53'1 1.2
2018-Feb-20 21:58N 33°54' E 130°53'0 0.0
2018-Feb-20 21:28N 33°54' E 130°53'0 0.0
2018-Feb-20 20:58N 33°54' E 130°53'0 0.0
2018-Feb-20 20:28N 33°54' E 130°53'0 0.0
2018-Feb-20 19:58N 33°54' E 130°53'0 0.0
2018-Feb-20 19:28N 33°54' E 130°53'0 0.0
2018-Feb-20 18:55N 33°54' E 130°53'0 0.0
2018-Feb-20 18:28N 33°54' E 130°53'0 0.0
2018-Feb-20 17:58N 33°54' E 130°53'0 0.0
2018-Feb-20 17:28N 33°54' E 130°53'0 0.0
2018-Feb-20 16:58N 33°54' E 130°53'0 0.0
2018-Feb-20 16:28N 33°54' E 130°53'0 0.0
2018-Feb-20 15:58N 33°54' E 130°53'0 0.0
2018-Feb-20 15:25N 33°54' E 130°53'0 0.0
2018-Feb-20 14:58N 33°54' E 130°53'0 0.0
2018-Feb-20 14:28N 33°54' E 130°53'0 0.0
2018-Feb-20 13:58N 33°54' E 130°53'0 0.0
2018-Feb-20 13:28N 33°54' E 130°53'0 0.0
2018-Feb-20 12:58N 33°54' E 130°53'0 0.0
2018-Feb-20 12:28N 33°54' E 130°53'0 0.0
2018-Feb-20 11:49N 33°54' E 130°53'0 0.0
2018-Feb-20 11:28N 33°54' E 130°53'0 0.0
2018-Feb-20 10:58N 33°54' E 130°53'0 0.0
2018-Feb-20 10:28N 33°54' E 130°53'0 0.0
2018-Feb-20 09:58N 33°54' E 130°53'0 0.0
2018-Feb-20 09:28N 33°54' E 130°53'0 0.0
2018-Feb-20 08:58N 33°54' E 130°53'0 0.0
2018-Feb-20 08:28N 33°54' E 130°53'0 0.0
2018-Feb-20 07:58N 33°54' E 130°53'0 0.0
2018-Feb-20 07:25N 33°54' E 130°53'0 0.0
2018-Feb-20 06:58N 33°54' E 130°53'0 0.0
2018-Feb-20 06:28N 33°54' E 130°53'0 0.0
2018-Feb-20 05:58N 33°54' E 130°53'0 0.0
2018-Feb-20 05:28N 33°54' E 130°53'0 0.0
2018-Feb-20 04:58N 33°54' E 130°53'0 0.0
2018-Feb-20 04:28N 33°54' E 130°53'0 0.0
2018-Feb-20 03:58N 33°54' E 130°53'0 0.0
2018-Feb-20 03:28N 33°54' E 130°53'0 0.0
2018-Feb-20 02:58N 33°54' E 130°53'0 0.0
2018-Feb-20 02:28N 33°54' E 130°53'0 0.0
2018-Feb-20 01:58N 33°54' E 130°53'0 0.0
2018-Feb-20 01:28N 33°54' E 130°53'0 0.0
2018-Feb-20 00:58N 33°54' E 130°53'0 0.0
2018-Feb-20 00:28N 33°54' E 130°53'0 0.0
2018-Feb-19 23:58N 33°54' E 130°53'0 0.0
2018-Feb-19 23:28N 33°54' E 130°53'0 0.0
2018-Feb-19 22:58N 33°54' E 130°53'0 0.0
2018-Feb-19 22:28N 33°54' E 130°53'0 0.1
2018-Feb-19 21:58N 33°54' E 130°53'0 0.6
2018-Feb-19 21:22N 33°54' E 130°53'0 0.0
2018-Feb-19 20:58N 33°54' E 130°53'0 0.0
2018-Feb-19 20:28N 33°54' E 130°53'0 0.0
2018-Feb-19 19:58N 33°54' E 130°53'0 0.0
2018-Feb-19 19:28N 33°54' E 130°53'0 0.0
2018-Feb-19 18:58N 33°54' E 130°53'0 0.0
2018-Feb-19 18:28N 33°54' E 130°53'0 0.0
2018-Feb-19 17:58N 33°54' E 130°53'0 0.0
2018-Feb-19 17:25N 33°54' E 130°53'0 0.0
2018-Feb-19 16:58N 33°54' E 130°53'0 0.0
2018-Feb-19 16:28N 33°54' E 130°53'0 0.0
2018-Feb-19 15:58N 33°54' E 130°53'0 0.0
2018-Feb-19 15:28N 33°54' E 130°53'0 0.0
2018-Feb-19 14:58N 33°54' E 130°53'0 0.0
2018-Feb-19 14:28N 33°54' E 130°53'0 0.0
2018-Feb-19 13:58N 33°54' E 130°53'0 0.0
2018-Feb-19 13:28N 33°54' E 130°53'0 0.0
2018-Feb-19 12:58N 33°54' E 130°53'0 0.0
2018-Feb-19 12:28N 33°54' E 130°53'0 0.0
2018-Feb-19 11:58N 33°54' E 130°53'0 0.0
2018-Feb-19 11:28N 33°54' E 130°53'0 0.0
2018-Feb-19 10:55N 33°54' E 130°53'0 0.0
2018-Feb-19 10:28N 33°54' E 130°53'0 0.0
2018-Feb-19 09:58N 33°54' E 130°53'0 0.0
2018-Feb-19 09:28N 33°54' E 130°53'0 0.0
2018-Feb-19 08:58N 33°54' E 130°53'0 0.0
2018-Feb-19 08:22N 33°54' E 130°53'0 0.0
2018-Feb-19 07:58N 33°54' E 130°53'0 0.0
2018-Feb-19 07:28N 33°54' E 130°53'0 0.0
2018-Feb-19 06:58N 33°54' E 130°53'0 0.0
2018-Feb-19 06:28N 33°54' E 130°53'0 0.0
2018-Feb-19 05:58N 33°54' E 130°53'0 0.0
2018-Feb-19 05:28N 33°54' E 130°53'0 0.0
2018-Feb-19 04:55N 33°54' E 130°53'0 0.0
2018-Feb-19 04:28N 33°54' E 130°53'0 0.0
2018-Feb-19 03:58N 33°54' E 130°53'0 0.0
2018-Feb-19 03:28N 33°54' E 130°53'0 0.0
2018-Feb-19 02:58N 33°54' E 130°53'0 0.0
2018-Feb-19 02:28N 33°54' E 130°53'0 0.0
2018-Feb-19 01:58N 33°54' E 130°53'0 0.0
2018-Feb-19 01:28N 33°54' E 130°53'0 0.0
2018-Feb-19 00:58N 33°54' E 130°53'0 0.0
2018-Feb-19 00:28N 33°54' E 130°53'0 0.0
2018-Feb-18 23:55N 33°54' E 130°53'0 0.0
2018-Feb-18 23:28N 33°54' E 130°53'0 0.0
2018-Feb-18 22:58N 33°54' E 130°53'0 0.0
2018-Feb-18 22:28N 33°54' E 130°53'0 0.0
2018-Feb-18 21:58N 33°54' E 130°53'0 0.0
2018-Feb-18 21:28N 33°54' E 130°53'0 0.0
2018-Feb-18 20:58N 33°54' E 130°53'0 0.0
2018-Feb-18 20:28N 33°54' E 130°53'0 0.0
2018-Feb-18 19:58N 33°54' E 130°53'0 0.0
2018-Feb-18 19:28N 33°54' E 130°53'0 0.0
2018-Feb-18 18:58N 33°54' E 130°53'0 0.0
2018-Feb-18 18:28N 33°54' E 130°53'0 0.0
2018-Feb-18 17:58N 33°54' E 130°53'0 0.0
2018-Feb-18 17:28N 33°54' E 130°53'0 0.0
2018-Feb-18 16:58N 33°54' E 130°53'0 0.0
2018-Feb-18 16:28N 33°54' E 130°53'0 0.0
2018-Feb-18 15:55N 33°54' E 130°53'0 0.0
2018-Feb-18 15:28N 33°54' E 130°53'0 0.0
2018-Feb-18 14:58N 33°54' E 130°53'0 0.0
2018-Feb-18 14:28N 33°54' E 130°53'0 0.0
2018-Feb-18 13:58N 33°54' E 130°53'0 0.0
2018-Feb-18 13:28N 33°54' E 130°53'0 0.0
2018-Feb-18 12:58N 33°54' E 130°53'0 0.0
2018-Feb-18 12:28N 33°54' E 130°53'0 0.0
2018-Feb-18 11:58N 33°54' E 130°53'0 0.0
2018-Feb-18 11:28N 33°54' E 130°53'0 0.0
2018-Feb-18 10:58N 33°54' E 130°53'0 0.0
2018-Feb-18 10:28N 33°54' E 130°53'0 0.0
2018-Feb-18 09:58N 33°54' E 130°53'0 0.0
2018-Feb-18 09:28N 33°54' E 130°53'0 0.0
2018-Feb-18 08:58N 33°54' E 130°53'0 0.0
2018-Feb-18 08:28N 33°54' E 130°53'0 0.0
2018-Feb-18 07:58N 33°54' E 130°53'0 0.0
2018-Feb-18 07:25N 33°54' E 130°53'0 0.0
2018-Feb-18 06:58N 33°54' E 130°53'0 0.0
2018-Feb-18 06:28N 33°54' E 130°53'0 0.0
2018-Feb-18 05:58N 33°54' E 130°53'0 0.0
2018-Feb-18 05:28N 33°54' E 130°53'0 0.0
2018-Feb-18 04:58N 33°54' E 130°53'0 0.0
2018-Feb-18 04:28N 33°54' E 130°53'0 0.0
2018-Feb-18 03:58N 33°54' E 130°53'0 0.0
2018-Feb-18 03:28N 33°54' E 130°53'0 0.0
2018-Feb-18 02:58N 33°54' E 130°53'0 0.0
2018-Feb-18 02:28N 33°54' E 130°53'0 0.0
2018-Feb-18 01:58N 33°54' E 130°53'0 0.0
2018-Feb-18 01:28N 33°54' E 130°53'0 0.0
2018-Feb-18 00:58N 33°54' E 130°53'3 6.0
2018-Feb-18 00:30N 33°55' E 130°56'611.5
2018-Feb-18 00:01N 33°59' E 131°01'611.6
2018-Feb-17 23:30N 33°56' E 131°07'611.9
2018-Feb-17 23:01N 33°53' E 131°13'612.0
2018-Feb-17 22:31N 33°51' E 131°20'611.7
2018-Feb-17 22:00N 33°50' E 131°27'611.9
2018-Feb-17 21:30N 33°49' E 131°34'611.7
2018-Feb-17 21:01N 33°48' E 131°41'611.5
2018-Feb-17 20:31N 33°47' E 131°48'1111.0
2018-Feb-17 19:33N 33°46' E 132°01'112.0
2018-Feb-17 19:29N 33°46' E 132°02'611.8
2018-Feb-17 19:00N 33°48' E 132°08'611.7
2018-Feb-17 18:28N 33°50' E 132°15'611.8
2018-Feb-17 17:57N 33°51' E 132°23'512.3
2018-Feb-17 17:30N 33°54' E 132°28'712.5
2018-Feb-17 16:54N 33°59' E 132°34'512.0
2018-Feb-17 16:30N 34°02' E 132°39'9010.1
2018-Feb-17 07:39N 34°20' E 134°25'410.1
2018-Feb-17 07:14N 34°19' E 134°30'3 9.9
2018-Feb-17 06:58N 34°18' E 134°33'7 8.7
2018-Feb-17 06:10N 34°14' E 134°39'211.1
2018-Feb-17 05:58N 34°12' E 134°42'5 9.5
2018-Feb-17 05:29N 34°09' E 134°45'5 9.5
2018-Feb-17 04:59N 34°05' E 134°49'5 9.7
2018-Feb-17 04:30N 34°02' E 134°53'5 9.6
2018-Feb-17 04:00N 33°58' E 134°56'5 9.3
2018-Feb-17 03:27N 33°54' E 135°00'103 7.1
2018-Feb-16 12:58N 34°39' E 136°52'511.2
2018-Feb-16 12:30N 34°43' E 136°49'611.5
2018-Feb-16 12:00N 34°48' E 136°46'611.3
2018-Feb-16 11:30N 34°54' E 136°46'510.9
2018-Feb-16 11:00N 34°59' E 136°48'510.7
2018-Feb-16 10:30N 35°03' E 136°52'1 1.3
2018-Feb-16 10:00N 35°03' E 136°53'0 0.0
2018-Feb-16 09:28N 35°03' E 136°53'0 0.0
2018-Feb-16 08:58N 35°03' E 136°53'0 0.0
2018-Feb-16 08:28N 35°03' E 136°53'0 0.0
2018-Feb-16 07:58N 35°03' E 136°53'0 0.0
2018-Feb-16 07:28N 35°03' E 136°53'0 0.0
2018-Feb-16 06:58N 35°03' E 136°53'0 0.0
2018-Feb-16 06:28N 35°03' E 136°53'0 0.0
2018-Feb-16 05:58N 35°03' E 136°53'0 0.0
2018-Feb-16 05:28N 35°03' E 136°53'0 0.0
2018-Feb-16 04:55N 35°03' E 136°53'0 0.0
2018-Feb-16 04:28N 35°03' E 136°53'0 0.0
2018-Feb-16 03:58N 35°03' E 136°53'0 0.0
2018-Feb-16 03:28N 35°03' E 136°53'0 0.0
2018-Feb-16 02:58N 35°03' E 136°53'0 0.0
2018-Feb-16 02:28N 35°03' E 136°53'0 0.0
2018-Feb-16 01:58N 35°03' E 136°53'0 0.0
2018-Feb-16 01:28N 35°03' E 136°53'0 0.0
2018-Feb-16 00:58N 35°03' E 136°53'0 0.0
2018-Feb-16 00:28N 35°03' E 136°53'0 0.0
2018-Feb-15 23:58N 35°03' E 136°53'0 0.0
2018-Feb-15 23:28N 35°03' E 136°53'0 0.0
2018-Feb-15 22:58N 35°03' E 136°53'0 0.0
2018-Feb-15 22:28N 35°03' E 136°53'0 0.0
2018-Feb-15 21:58N 35°03' E 136°53'0 0.0
2018-Feb-15 21:28N 35°03' E 136°53'0 0.0
2018-Feb-15 20:58N 35°03' E 136°53'0 0.0
2018-Feb-15 20:28N 35°03' E 136°53'0 0.0
2018-Feb-15 19:52N 35°03' E 136°53'0 0.0
2018-Feb-15 19:28N 35°03' E 136°53'0 0.0
2018-Feb-15 18:58N 35°03' E 136°53'0 0.0
2018-Feb-15 18:28N 35°03' E 136°53'0 0.0
2018-Feb-15 17:58N 35°03' E 136°53'0 0.0
2018-Feb-15 17:25N 35°03' E 136°53'0 0.0
2018-Feb-15 16:58N 35°03' E 136°53'0 0.0
2018-Feb-15 16:28N 35°03' E 136°53'0 0.0
2018-Feb-15 15:58N 35°03' E 136°53'0 0.0
2018-Feb-15 15:28N 35°03' E 136°53'0 0.0
2018-Feb-15 14:58N 35°03' E 136°53'0 0.0
2018-Feb-15 14:28N 35°03' E 136°53'0 0.2
2018-Feb-15 14:00N 35°03' E 136°53'3 5.5
2018-Feb-15 13:30N 35°03' E 136°50'0 0.0
2018-Feb-14 23:55N 35°03' E 136°50'0 0.0
2018-Feb-14 23:31N 35°03' E 136°50'0 0.0
2018-Feb-14 23:01N 35°03' E 136°50'1 2.4
2018-Feb-14 22:30N 35°02' E 136°50'5 9.9
2018-Feb-14 22:00N 34°58' E 136°48'5 9.9
2018-Feb-14 21:31N 34°53' E 136°47'510.8
2018-Feb-14 21:00N 34°47' E 136°47'711.7
2018-Feb-14 20:25N 34°41' E 136°51'101 7.8
2018-Feb-14 07:29N 33°49' E 135°06'511.1
2018-Feb-14 07:01N 33°53' E 135°02'611.3
2018-Feb-14 06:28N 33°59' E 135°01'511.4
2018-Feb-14 06:00N 34°04' E 135°00'611.8
2018-Feb-14 05:30N 34°10' E 134°59'612.2
2018-Feb-14 05:01N 34°16' E 134°59'611.5
2018-Feb-14 04:30N 34°22' E 134°59'611.7
2018-Feb-14 04:00N 34°27' E 135°01'611.8
2018-Feb-14 03:30N 34°33' E 135°03'510.1
2018-Feb-14 03:00N 34°37' E 134°59'612.1
2018-Feb-14 02:30N 34°38' E 134°51'611.9
2018-Feb-14 02:00N 34°42' E 134°45'811.3
2018-Feb-14 01:20N 34°46' E 134°38'  
Track history (hours):
 
Tides and Currents Weather Stations Pressure Air Temp Water Temp Dewpoint Dewpoint Depression Visibility Wind Speed Wind Dir Waves Ship Positions

Oriibu

Last reported at 2018-Feb-23 20:28 UTC. Time now 2018-Feb-23 20:43 UTC.
Position N 34°15' E 135°06'.

Length 75 m; draft 4.3 m.

MMSI: 431000426.

Date/timePositionNaut miles runAvg speedWind from/ knotsBaromVisibWave heightAir tempDewpointWater temp
2018-Feb-23 20:28N 34°15' E 135°06'0 0.0
2018-Feb-23 19:58N 34°15' E 135°06'0 0.0
2018-Feb-23 19:28N 34°15' E 135°06'0 0.0
2018-Feb-23 18:58N 34°15' E 135°06'0 0.0
2018-Feb-23 18:28N 34°15' E 135°06'0 0.0
2018-Feb-23 17:58N 34°15' E 135°06'0 0.0
2018-Feb-23 17:28N 34°15' E 135°06'0 0.0
2018-Feb-23 16:58N 34°15' E 135°06'0 0.0
2018-Feb-23 16:28N 34°15' E 135°06'0 0.0
2018-Feb-23 15:58N 34°15' E 135°06'0 0.0
2018-Feb-23 15:28N 34°15' E 135°06'0 0.0
2018-Feb-23 14:58N 34°15' E 135°06'0 0.0
2018-Feb-23 14:28N 34°15' E 135°06'0 0.0
2018-Feb-23 13:58N 34°15' E 135°06'0 0.0
2018-Feb-23 13:28N 34°15' E 135°06'0 0.1
2018-Feb-23 12:58N 34°15' E 135°06'0 0.1
2018-Feb-23 12:28N 34°15' E 135°06'0 0.0
2018-Feb-23 11:58N 34°15' E 135°06'0 0.0
2018-Feb-23 11:28N 34°15' E 135°06'0 0.0
2018-Feb-23 10:58N 34°15' E 135°06'0 0.0
2018-Feb-23 10:28N 34°15' E 135°06'0 0.1
2018-Feb-23 10:00N 34°15' E 135°06'3 6.4
2018-Feb-23 09:30N 34°17' E 135°04'713.6
2018-Feb-23 09:01N 34°23' E 135°08'713.4
2018-Feb-23 08:30N 34°28' E 135°13'713.2
2018-Feb-23 08:01N 34°33' E 135°18'612.8
2018-Feb-23 07:31N 34°38' E 135°23'4 6.9
2018-Feb-23 07:00N 34°40' E 135°27'0 0.0
2018-Feb-23 06:27N 34°40' E 135°27'0 0.0
2018-Feb-23 06:00N 34°40' E 135°27'0 0.0
2018-Feb-23 05:27N 34°40' E 135°27'0 0.0
2018-Feb-23 05:00N 34°40' E 135°27'0 0.0
2018-Feb-23 04:30N 34°40' E 135°27'0 0.1
2018-Feb-23 04:00N 34°40' E 135°27'3 6.4
2018-Feb-23 03:30N 34°40' E 135°23'2 3.8
2018-Feb-23 02:58N 34°42' E 135°24'0 0.0
2018-Feb-23 02:31N 34°42' E 135°24'0 0.0
2018-Feb-23 01:58N 34°42' E 135°24'0 0.0
2018-Feb-23 01:30N 34°42' E 135°24'1 2.9
2018-Feb-23 01:00N 34°40' E 135°23'611.3
2018-Feb-23 00:29N 34°38' E 135°17'611.7
2018-Feb-23 00:00N 34°36' E 135°10'611.5
2018-Feb-22 23:31N 34°36' E 135°03'612.2
2018-Feb-22 23:00N 34°36' E 134°56'612.7
2018-Feb-22 22:30N 34°33' E 134°49'612.1
2018-Feb-22 22:00N 34°31' E 134°42'612.0
2018-Feb-22 21:29N 34°29' E 134°35'611.7
2018-Feb-22 20:59N 34°26' E 134°28'9011.4
2018-Feb-22 13:02N 34°03' E 132°43'013.0
2018-Feb-22 13:00N 34°03' E 132°42'2011.5
2018-Feb-22 11:13N 33°51' E 132°23'211.0
2018-Feb-22 11:00N 33°50' E 132°20'711.3
2018-Feb-22 10:25N 33°49' E 132°12'510.8
2018-Feb-22 09:57N 33°47' E 132°07'1110.9
2018-Feb-22 08:56N 33°45' E 131°54'512.0
2018-Feb-22 08:30N 33°47' E 131°48'612.2
2018-Feb-22 08:00N 33°48' E 131°41'712.3
2018-Feb-22 07:29N 33°49' E 131°33'612.1
2018-Feb-22 07:00N 33°51' E 131°26'612.0
2018-Feb-22 06:30N 33°52' E 131°19'612.0
2018-Feb-22 06:01N 33°53' E 131°12'611.6
2018-Feb-22 05:31N 33°55' E 131°06'510.7
2018-Feb-22 05:00N 33°59' E 131°00'4 8.8
2018-Feb-22 04:30N 33°56' E 130°56'3 5.1
2018-Feb-22 04:01N 33°55' E 130°53'3 6.7
2018-Feb-22 03:31N 33°55' E 130°49'0 0.0
2018-Feb-22 02:55N 33°55' E 130°49'0 0.0
2018-Feb-22 02:28N 33°55' E 130°49'0 0.0
2018-Feb-22 01:58N 33°55' E 130°49'0 0.0
2018-Feb-22 01:28N 33°55' E 130°49'0 0.0
2018-Feb-22 00:58N 33°55' E 130°49'0 0.0
2018-Feb-22 00:28N 33°55' E 130°49'0 0.0
2018-Feb-21 23:58N 33°55' E 130°49'0 0.0
2018-Feb-21 23:28N 33°55' E 130°49'0 0.0
2018-Feb-21 22:58N 33°55' E 130°49'0 0.0
2018-Feb-21 22:28N 33°55' E 130°49'0 0.0
2018-Feb-21 21:58N 33°55' E 130°49'0 0.0
2018-Feb-21 21:28N 33°55' E 130°49'0 0.0
2018-Feb-21 20:58N 33°55' E 130°49'0 0.0
2018-Feb-21 20:28N 33°55' E 130°49'0 0.0
2018-Feb-21 19:58N 33°55' E 130°49'0 0.0
2018-Feb-21 19:28N 33°55' E 130°49'0 0.0
2018-Feb-21 18:58N 33°55' E 130°49'0 0.0
2018-Feb-21 18:28N 33°55' E 130°49'0 0.0
2018-Feb-21 17:58N 33°55' E 130°49'0 0.0
2018-Feb-21 17:28N 33°55' E 130°49'0 0.0
2018-Feb-21 16:58N 33°55' E 130°49'0 0.0
2018-Feb-21 16:28N 33°55' E 130°49'0 0.0
2018-Feb-21 15:58N 33°55' E 130°49'0 0.0
2018-Feb-21 15:28N 33°55' E 130°49'0 0.0
2018-Feb-21 14:52N 33°55' E 130°49'0 0.0
2018-Feb-21 14:28N 33°55' E 130°49'0 0.0
2018-Feb-21 13:58N 33°55' E 130°49'0 0.0
2018-Feb-21 13:28N 33°55' E 130°49'0 0.0
2018-Feb-21 12:58N 33°55' E 130°49'0 0.0
2018-Feb-21 12:25N 33°55' E 130°49'0 0.0
2018-Feb-21 12:01N 33°55' E 130°49'3 6.1
2018-Feb-21 11:30N 33°56' E 130°53'2 3.6
2018-Feb-21 11:00N 33°54' E 130°53'0 0.0
2018-Feb-21 10:30N 33°54' E 130°53'0 0.0
2018-Feb-21 10:00N 33°54' E 130°53'0 0.0
2018-Feb-21 09:30N 33°54' E 130°53'0 0.0
2018-Feb-21 09:00N 33°54' E 130°53'0 0.0
2018-Feb-21 08:30N 33°54' E 130°53'0 0.1
2018-Feb-21 08:00N 33°54' E 130°53'0 0.0
2018-Feb-21 07:30N 33°54' E 130°53'0 0.0
2018-Feb-21 07:00N 33°54' E 130°53'0 0.0
2018-Feb-21 06:30N 33°54' E 130°53'0 0.0
2018-Feb-21 06:00N 33°54' E 130°53'0 0.4
2018-Feb-21 05:30N 33°54' E 130°53'1 2.1
2018-Feb-21 05:00N 33°55' E 130°52'0 0.0
2018-Feb-21 04:28N 33°55' E 130°52'0 0.0
2018-Feb-21 03:58N 33°55' E 130°52'0 0.0
2018-Feb-21 03:28N 33°55' E 130°52'0 0.0
2018-Feb-21 02:58N 33°55' E 130°52'0 0.0
2018-Feb-21 02:28N 33°55' E 130°52'0 0.0
2018-Feb-21 01:58N 33°55' E 130°52'0 0.0
2018-Feb-21 01:28N 33°55' E 130°52'0 0.0
2018-Feb-21 00:58N 33°55' E 130°52'0 0.0
2018-Feb-21 00:28N 33°55' E 130°52'0 0.0
2018-Feb-20 23:58N 33°55' E 130°52'0 0.0
2018-Feb-20 23:28N 33°55' E 130°52'0 0.0
2018-Feb-20 23:00N 33°55' E 130°52'1 1.8
2018-Feb-20 22:31N 33°55' E 130°53'1 1.2
2018-Feb-20 21:58N 33°54' E 130°53'0 0.0
2018-Feb-20 21:28N 33°54' E 130°53'0 0.0
2018-Feb-20 20:58N 33°54' E 130°53'0 0.0
2018-Feb-20 20:28N 33°54' E 130°53'0 0.0
2018-Feb-20 19:58N 33°54' E 130°53'0 0.0
2018-Feb-20 19:28N 33°54' E 130°53'0 0.0
2018-Feb-20 18:55N 33°54' E 130°53'0 0.0
2018-Feb-20 18:28N 33°54' E 130°53'0 0.0
2018-Feb-20 17:58N 33°54' E 130°53'0 0.0
2018-Feb-20 17:28N 33°54' E 130°53'0 0.0
2018-Feb-20 16:58N 33°54' E 130°53'0 0.0
2018-Feb-20 16:28N 33°54' E 130°53'0 0.0
2018-Feb-20 15:58N 33°54' E 130°53'0 0.0
2018-Feb-20 15:25N 33°54' E 130°53'0 0.0
2018-Feb-20 14:58N 33°54' E 130°53'0 0.0
2018-Feb-20 14:28N 33°54' E 130°53'0 0.0
2018-Feb-20 13:58N 33°54' E 130°53'0 0.0
2018-Feb-20 13:28N 33°54' E 130°53'0 0.0
2018-Feb-20 12:58N 33°54' E 130°53'0 0.0
2018-Feb-20 12:28N 33°54' E 130°53'0 0.0
2018-Feb-20 11:49N 33°54' E 130°53'0 0.0
2018-Feb-20 11:28N 33°54' E 130°53'0 0.0
2018-Feb-20 10:58N 33°54' E 130°53'0 0.0
2018-Feb-20 10:28N 33°54' E 130°53'0 0.0
2018-Feb-20 09:58N 33°54' E 130°53'0 0.0
2018-Feb-20 09:28N 33°54' E 130°53'0 0.0
2018-Feb-20 08:58N 33°54' E 130°53'0 0.0
2018-Feb-20 08:28N 33°54' E 130°53'0 0.0
2018-Feb-20 07:58N 33°54' E 130°53'0 0.0
2018-Feb-20 07:25N 33°54' E 130°53'0 0.0
2018-Feb-20 06:58N 33°54' E 130°53'0 0.0
2018-Feb-20 06:28N 33°54' E 130°53'0 0.0
2018-Feb-20 05:58N 33°54' E 130°53'0 0.0
2018-Feb-20 05:28N 33°54' E 130°53'0 0.0
2018-Feb-20 04:58N 33°54' E 130°53'0 0.0
2018-Feb-20 04:28N 33°54' E 130°53'0 0.0
2018-Feb-20 03:58N 33°54' E 130°53'0 0.0
2018-Feb-20 03:28N 33°54' E 130°53'0 0.0
2018-Feb-20 02:58N 33°54' E 130°53'0 0.0
2018-Feb-20 02:28N 33°54' E 130°53'0 0.0
2018-Feb-20 01:58N 33°54' E 130°53'0 0.0
2018-Feb-20 01:28N 33°54' E 130°53'0 0.0
2018-Feb-20 00:58N 33°54' E 130°53'0 0.0
2018-Feb-20 00:28N 33°54' E 130°53'0 0.0
2018-Feb-19 23:58N 33°54' E 130°53'0 0.0
2018-Feb-19 23:28N 33°54' E 130°53'0 0.0
2018-Feb-19 22:58N 33°54' E 130°53'0 0.0
2018-Feb-19 22:28N 33°54' E 130°53'0 0.1
2018-Feb-19 21:58N 33°54' E 130°53'0 0.6
2018-Feb-19 21:22N 33°54' E 130°53'0 0.0
2018-Feb-19 20:58N 33°54' E 130°53'0 0.0
2018-Feb-19 20:28N 33°54' E 130°53'0 0.0
2018-Feb-19 19:58N 33°54' E 130°53'0 0.0
2018-Feb-19 19:28N 33°54' E 130°53'0 0.0
2018-Feb-19 18:58N 33°54' E 130°53'0 0.0
2018-Feb-19 18:28N 33°54' E 130°53'0 0.0
2018-Feb-19 17:58N 33°54' E 130°53'0 0.0
2018-Feb-19 17:25N 33°54' E 130°53'0 0.0
2018-Feb-19 16:58N 33°54' E 130°53'0 0.0
2018-Feb-19 16:28N 33°54' E 130°53'0 0.0
2018-Feb-19 15:58N 33°54' E 130°53'0 0.0
2018-Feb-19 15:28N 33°54' E 130°53'0 0.0
2018-Feb-19 14:58N 33°54' E 130°53'0 0.0
2018-Feb-19 14:28N 33°54' E 130°53'0 0.0
2018-Feb-19 13:58N 33°54' E 130°53'0 0.0
2018-Feb-19 13:28N 33°54' E 130°53'0 0.0
2018-Feb-19 12:58N 33°54' E 130°53'0 0.0
2018-Feb-19 12:28N 33°54' E 130°53'0 0.0
2018-Feb-19 11:58N 33°54' E 130°53'0 0.0
2018-Feb-19 11:28N 33°54' E 130°53'0 0.0
2018-Feb-19 10:55N 33°54' E 130°53'0 0.0
2018-Feb-19 10:28N 33°54' E 130°53'0 0.0
2018-Feb-19 09:58N 33°54' E 130°53'0 0.0
2018-Feb-19 09:28N 33°54' E 130°53'0 0.0
2018-Feb-19 08:58N 33°54' E 130°53'0 0.0
2018-Feb-19 08:22N 33°54' E 130°53'0 0.0
2018-Feb-19 07:58N 33°54' E 130°53'0 0.0
2018-Feb-19 07:28N 33°54' E 130°53'0 0.0
2018-Feb-19 06:58N 33°54' E 130°53'0 0.0
2018-Feb-19 06:28N 33°54' E 130°53'0 0.0
2018-Feb-19 05:58N 33°54' E 130°53'0 0.0
2018-Feb-19 05:28N 33°54' E 130°53'0 0.0
2018-Feb-19 04:55N 33°54' E 130°53'0 0.0
2018-Feb-19 04:28N 33°54' E 130°53'0 0.0
2018-Feb-19 03:58N 33°54' E 130°53'0 0.0
2018-Feb-19 03:28N 33°54' E 130°53'0 0.0
2018-Feb-19 02:58N 33°54' E 130°53'0 0.0
2018-Feb-19 02:28N 33°54' E 130°53'0 0.0
2018-Feb-19 01:58N 33°54' E 130°53'0 0.0
2018-Feb-19 01:28N 33°54' E 130°53'0 0.0
2018-Feb-19 00:58N 33°54' E 130°53'0 0.0
2018-Feb-19 00:28N 33°54' E 130°53'0 0.0
2018-Feb-18 23:55N 33°54' E 130°53'0 0.0
2018-Feb-18 23:28N 33°54' E 130°53'0 0.0
2018-Feb-18 22:58N 33°54' E 130°53'0 0.0
2018-Feb-18 22:28N 33°54' E 130°53'0 0.0
2018-Feb-18 21:58N 33°54' E 130°53'0 0.0
2018-Feb-18 21:28N 33°54' E 130°53'0 0.0
2018-Feb-18 20:58N 33°54' E 130°53'0 0.0
2018-Feb-18 20:28N 33°54' E 130°53'0 0.0
2018-Feb-18 19:58N 33°54' E 130°53'0 0.0
2018-Feb-18 19:28N 33°54' E 130°53'0 0.0
2018-Feb-18 18:58N 33°54' E 130°53'0 0.0
2018-Feb-18 18:28N 33°54' E 130°53'0 0.0
2018-Feb-18 17:58N 33°54' E 130°53'0 0.0
2018-Feb-18 17:28N 33°54' E 130°53'0 0.0
2018-Feb-18 16:58N 33°54' E 130°53'0 0.0
2018-Feb-18 16:28N 33°54' E 130°53'0 0.0
2018-Feb-18 15:55N 33°54' E 130°53'0 0.0
2018-Feb-18 15:28N 33°54' E 130°53'0 0.0
2018-Feb-18 14:58N 33°54' E 130°53'0 0.0
2018-Feb-18 14:28N 33°54' E 130°53'0 0.0
2018-Feb-18 13:58N 33°54' E 130°53'0 0.0
2018-Feb-18 13:28N 33°54' E 130°53'0 0.0
2018-Feb-18 12:58N 33°54' E 130°53'0 0.0
2018-Feb-18 12:28N 33°54' E 130°53'0 0.0
2018-Feb-18 11:58N 33°54' E 130°53'0 0.0
2018-Feb-18 11:28N 33°54' E 130°53'0 0.0
2018-Feb-18 10:58N 33°54' E 130°53'0 0.0
2018-Feb-18 10:28N 33°54' E 130°53'0 0.0
2018-Feb-18 09:58N 33°54' E 130°53'0 0.0
2018-Feb-18 09:28N 33°54' E 130°53'0 0.0
2018-Feb-18 08:58N 33°54' E 130°53'0 0.0
2018-Feb-18 08:28N 33°54' E 130°53'0 0.0
2018-Feb-18 07:58N 33°54' E 130°53'0 0.0
2018-Feb-18 07:25N 33°54' E 130°53'0 0.0
2018-Feb-18 06:58N 33°54' E 130°53'0 0.0
2018-Feb-18 06:28N 33°54' E 130°53'0 0.0
2018-Feb-18 05:58N 33°54' E 130°53'0 0.0
2018-Feb-18 05:28N 33°54' E 130°53'0 0.0
2018-Feb-18 04:58N 33°54' E 130°53'0 0.0
2018-Feb-18 04:28N 33°54' E 130°53'0 0.0
2018-Feb-18 03:58N 33°54' E 130°53'0 0.0
2018-Feb-18 03:28N 33°54' E 130°53'0 0.0
2018-Feb-18 02:58N 33°54' E 130°53'0 0.0
2018-Feb-18 02:28N 33°54' E 130°53'0 0.0
2018-Feb-18 01:58N 33°54' E 130°53'0 0.0
2018-Feb-18 01:28N 33°54' E 130°53'0 0.0
2018-Feb-18 00:58N 33°54' E 130°53'3 6.0
2018-Feb-18 00:30N 33°55' E 130°56'611.5
2018-Feb-18 00:01N 33°59' E 131°01'611.6
2018-Feb-17 23:30N 33°56' E 131°07'611.9
2018-Feb-17 23:01N 33°53' E 131°13'612.0
2018-Feb-17 22:31N 33°51' E 131°20'611.7
2018-Feb-17 22:00N 33°50' E 131°27'611.9
2018-Feb-17 21:30N 33°49' E 131°34'611.7
2018-Feb-17 21:01N 33°48' E 131°41'611.5
2018-Feb-17 20:31N 33°47' E 131°48'1111.0
2018-Feb-17 19:33N 33°46' E 132°01'112.0
2018-Feb-17 19:29N 33°46' E 132°02'611.8
2018-Feb-17 19:00N 33°48' E 132°08'611.7
2018-Feb-17 18:28N 33°50' E 132°15'611.8
2018-Feb-17 17:57N 33°51' E 132°23'512.3
2018-Feb-17 17:30N 33°54' E 132°28'712.5
2018-Feb-17 16:54N 33°59' E 132°34'512.0
2018-Feb-17 16:30N 34°02' E 132°39'9010.1
2018-Feb-17 07:39N 34°20' E 134°25'410.1
2018-Feb-17 07:14N 34°19' E 134°30'3 9.9
2018-Feb-17 06:58N 34°18' E 134°33'7 8.7
2018-Feb-17 06:10N 34°14' E 134°39'211.1
2018-Feb-17 05:58N 34°12' E 134°42'5 9.5
2018-Feb-17 05:29N 34°09' E 134°45'5 9.5
2018-Feb-17 04:59N 34°05' E 134°49'5 9.7
2018-Feb-17 04:30N 34°02' E 134°53'5 9.6
2018-Feb-17 04:00N 33°58' E 134°56'5 9.3
2018-Feb-17 03:27N 33°54' E 135°00'103 7.1
2018-Feb-16 12:58N 34°39' E 136°52'511.2
2018-Feb-16 12:30N 34°43' E 136°49'611.5
2018-Feb-16 12:00N 34°48' E 136°46'611.3
2018-Feb-16 11:30N 34°54' E 136°46'510.9
2018-Feb-16 11:00N 34°59' E 136°48'510.7
2018-Feb-16 10:30N 35°03' E 136°52'1 1.3
2018-Feb-16 10:00N 35°03' E 136°53'0 0.0
2018-Feb-16 09:28N 35°03' E 136°53'0 0.0
2018-Feb-16 08:58N 35°03' E 136°53'0 0.0
2018-Feb-16 08:28N 35°03' E 136°53'0 0.0
2018-Feb-16 07:58N 35°03' E 136°53'0 0.0
2018-Feb-16 07:28N 35°03' E 136°53'0 0.0
2018-Feb-16 06:58N 35°03' E 136°53'0 0.0
2018-Feb-16 06:28N 35°03' E 136°53'0 0.0
2018-Feb-16 05:58N 35°03' E 136°53'0 0.0
2018-Feb-16 05:28N 35°03' E 136°53'0 0.0
2018-Feb-16 04:55N 35°03' E 136°53'0 0.0
2018-Feb-16 04:28N 35°03' E 136°53'0 0.0
2018-Feb-16 03:58N 35°03' E 136°53'0 0.0
2018-Feb-16 03:28N 35°03' E 136°53'0 0.0
2018-Feb-16 02:58N 35°03' E 136°53'0 0.0
2018-Feb-16 02:28N 35°03' E 136°53'0 0.0
2018-Feb-16 01:58N 35°03' E 136°53'0 0.0
2018-Feb-16 01:28N 35°03' E 136°53'0 0.0
2018-Feb-16 00:58N 35°03' E 136°53'0 0.0
2018-Feb-16 00:28N 35°03' E 136°53'0 0.0
2018-Feb-15 23:58N 35°03' E 136°53'0 0.0
2018-Feb-15 23:28N 35°03' E 136°53'0 0.0
2018-Feb-15 22:58N 35°03' E 136°53'0 0.0
2018-Feb-15 22:28N 35°03' E 136°53'0 0.0
2018-Feb-15 21:58N 35°03' E 136°53'0 0.0
2018-Feb-15 21:28N 35°03' E 136°53'0 0.0
2018-Feb-15 20:58N 35°03' E 136°53'0 0.0
2018-Feb-15 20:28N 35°03' E 136°53'0 0.0
2018-Feb-15 19:52N 35°03' E 136°53'0 0.0
2018-Feb-15 19:28N 35°03' E 136°53'0 0.0
2018-Feb-15 18:58N 35°03' E 136°53'0 0.0
2018-Feb-15 18:28N 35°03' E 136°53'0 0.0
2018-Feb-15 17:58N 35°03' E 136°53'0 0.0
2018-Feb-15 17:25N 35°03' E 136°53'0 0.0
2018-Feb-15 16:58N 35°03' E 136°53'0 0.0
2018-Feb-15 16:28N 35°03' E 136°53'0 0.0
2018-Feb-15 15:58N 35°03' E 136°53'0 0.0
2018-Feb-15 15:28N 35°03' E 136°53'0 0.0
2018-Feb-15 14:58N 35°03' E 136°53'0 0.0
2018-Feb-15 14:28N 35°03' E 136°53'0 0.2
2018-Feb-15 14:00N 35°03' E 136°53'3 5.5
2018-Feb-15 13:30N 35°03' E 136°50'0 0.0
2018-Feb-14 23:55N 35°03' E 136°50'0 0.0
2018-Feb-14 23:31N 35°03' E 136°50'0 0.0
2018-Feb-14 23:01N 35°03' E 136°50'1 2.4
2018-Feb-14 22:30N 35°02' E 136°50'5 9.9
2018-Feb-14 22:00N 34°58' E 136°48'5 9.9
2018-Feb-14 21:31N 34°53' E 136°47'510.8
2018-Feb-14 21:00N 34°47' E 136°47'711.7
2018-Feb-14 20:25N 34°41' E 136°51'101 7.8
2018-Feb-14 07:29N 33°49' E 135°06'511.1
2018-Feb-14 07:01N 33°53' E 135°02'611.3
2018-Feb-14 06:28N 33°59' E 135°01'511.4
2018-Feb-14 06:00N 34°04' E 135°00'611.8
2018-Feb-14 05:30N 34°10' E 134°59'612.2
2018-Feb-14 05:01N 34°16' E 134°59'611.5
2018-Feb-14 04:30N 34°22' E 134°59'611.7
2018-Feb-14 04:00N 34°27' E 135°01'611.8
2018-Feb-14 03:30N 34°33' E 135°03'510.1
2018-Feb-14 03:00N 34°37' E 134°59'612.1
2018-Feb-14 02:30N 34°38' E 134°51'611.9
2018-Feb-14 02:00N 34°42' E 134°45'811.3
2018-Feb-14 01:20N 34°46' E 134°38'  

Dump ship's entire track history